LCLKLGKO

Guest
Details From LCLK - Larnaca
To LGKO - KOS
Flight Number -
Tags generated
Created
Modified
Stats Distance 340 nm / 629 km
Max Altitude 40,000 ft / 12,192 m
Waypoints 7
Social Downloads 0
Likes 0
Share VATSIM

Download

Looking for another format? Having issues loading an existing format? Contact us
Advertisement - Login to hide

Notes

Basic altitude profile: - Ascent Rate: 2500ft/min - Ascent Speed: 250kts - Cruise Altitude: 200000ft - Cruise Speed: 420kts - Descent Rate: 1500ft/min - Descent Speed: 250kts

Route

LCLK DAROS UM601 RDS LGKO

ID Type Via Altitude Latitude Longitude Leg Dist Tot Dist Heading (true) Name
O LCLK APT - 0 ft / 0 m 34.87512˚ 33.62483˚ - 0 nm - Larnaca
DAROS FIX - 8,800 ft / 2,682 m 35.01167˚ 33.14833˚ 24 nm 24 nm 289° / 289° -
DASNI FIX UM601 (AWY-HI) 40,000 ft / 12,192 m 35.61667˚ 30.85000˚ 118 nm 143 nm 289° / 287° -
EVENO FIX UM601 (AWY-HI) 32,700 ft / 9,967 m 35.83333˚ 30.00000˚ 43 nm 186 nm 288° / 287° -
EXELA FIX UM601 (AWY-HI) 26,800 ft / 8,169 m 35.95556˚ 29.54778˚ 23 nm 209 nm 289° / 288° -
RDS VOR UM601 (AWY-HI) 24,500 ft / 7,468 m 36.34111˚ 28.08250˚ 74 nm 284 nm 288° / 288° RODOS VOR-DME
O LGKO APT - 0 ft / 0 m 36.79440˚ 27.09076˚ 55 nm 339 nm 300° / 299° KOS

Altitude Profile

Advertisement - Login to hide

Weather


0- 5 10 15 20 25 30 35+ Temperature / ° C

Clouds and Precipitation
Forecast for 2017-12-18 18:00 UTC. Updated 2 hours ago

Ground ~20,000 ft ~40,000 ft Winds

LCLK

Details ICAO LCLK (LCA)
Name Larnaca
Region Cyprus
Timezone Asia/Nicosia (UTC+2.0)
Stats Elevation 8 ft / 2 m (AMSL)
Location 34.875115° 33.624832°
Runways 1
Magnetic Variation 4.991° E

METAR

LCLK 181500Z 13005KT 9999 FEW019 SCT050 19/16 Q1018 NOSIG

Decode

TAF

TAF LCLK 181130Z 1812/1912 18010KT 9999 FEW030 BECMG 1814/1818 32006KT BECMG 1906/1909 35010KT BECMG 1907/1910 05008KT

Decode

Departure Runways

ID Width Length Bearing (true) Bearing (mag) Surface Threshold Offset Overrun Length
04 148 ft / 45 m 9,771 ft / 2,978 m 45.15° 40.16° Asphalt 0 ft / 0 m 210 ft / 64 m
22 148 ft / 45 m 9,771 ft / 2,978 m 225.17° 220.18° Asphalt 575 ft / 175 m 0 ft / 0 m

LGKO

Details ICAO LGKO (KGS)
Name KOS
Region Greece
Timezone Europe/Athens (UTC+2.0)
Stats Elevation 412 ft / 126 m (AMSL)
Location 36.794403° 27.090764°
Runways 1
Magnetic Variation 4.724° E

METAR

LGKO 181450Z 22010KT 9999 FEW018 15/05 Q1015

Decode

TAF

TAF LGKO 181100Z 1812/1912 25015KT 9999 SCT020 PROB40 TEMPO 1812/1906 5000 RA SCT010 BKN020 PROB30 TEMPO 1816/1824 3000 TSRA SCT010 FEW018CB BKN020 PROB40 TEMPO 1818/1824 25018G28KT BECMG 1904/1906 34012KT

Decode

Destination Runways

ID Width Length Bearing (true) Bearing (mag) Surface Threshold Offset Overrun Length
14 148 ft / 45 m 7,923 ft / 2,415 m 148.29° 143.57° Asphalt 0 ft / 0 m 240 ft / 73 m
32 148 ft / 45 m 7,923 ft / 2,415 m 328.30° 323.58° Asphalt 0 ft / 0 m 205 ft / 62 m

Popular Alternatives